createdAt,value
2023-01-17T00:00:03.596Z,66.74
2023-01-17T00:06:05.231Z,66.72
2023-01-17T00:11:25.959Z,66.16
2023-01-17T00:16:46.581Z,66.36
2023-01-17T00:22:39.810Z,66.17
2023-01-17T00:28:01.457Z,65.98
2023-01-17T00:33:23.092Z,66.87
2023-01-17T00:38:43.723Z,66.59
2023-01-17T00:44:23.118Z,65.98
2023-01-17T00:50:02.631Z,66.17
2023-01-17T00:55:41.662Z,66.16
2023-01-17T01:01:24.932Z,66.19
2023-01-17T01:07:04.349Z,66.15
2023-01-17T01:12:43.620Z,65.97
2023-01-17T01:18:24.826Z,65.90
2023-01-17T01:24:04.125Z,65.67
2023-01-17T01:29:43.236Z,65.70
2023-01-17T01:35:04.442Z,66.31
2023-01-17T01:40:25.492Z,66.08
2023-01-17T01:45:51.886Z,65.95
2023-01-17T01:51:19.383Z,65.82
2023-01-17T01:56:41.364Z,66.01
2023-01-17T02:02:02.366Z,65.59
2023-01-17T02:07:32.027Z,65.74
2023-01-17T02:12:53.317Z,66.41
2023-01-17T02:18:52.617Z,65.73
2023-01-17T02:24:22.897Z,65.77
2023-01-17T02:30:11.435Z,66.12
2023-01-17T02:35:48.187Z,65.68
2023-01-17T02:41:23.942Z,65.08
2023-01-17T02:46:52.297Z,65.48
2023-01-17T02:52:50.957Z,65.60
2023-01-17T02:58:25.211Z,64.81
2023-01-17T03:04:01.838Z,65.17
2023-01-17T03:09:25.067Z,64.80
2023-01-17T03:14:45.952Z,64.67
2023-01-17T03:20:06.768Z,65.21
2023-01-17T03:25:27.751Z,65.43
2023-01-17T03:30:48.863Z,65.35
2023-01-17T03:36:09.796Z,64.37
2023-01-17T03:41:30.761Z,64.18
2023-01-17T03:46:52.643Z,64.78
2023-01-17T03:52:13.567Z,64.14
2023-01-17T03:57:34.122Z,64.38
2023-01-17T04:02:55.343Z,64.17
2023-01-17T04:08:16.052Z,63.82
2023-01-17T04:13:36.805Z,64.45
2023-01-17T04:18:57.773Z,64.24
2023-01-17T04:24:18.745Z,64.35
2023-01-17T04:29:39.461Z,64.10
2023-01-17T04:35:00.276Z,63.84
2023-01-17T04:40:21.133Z,63.80
2023-01-17T04:45:41.678Z,63.13
2023-01-17T04:51:04.377Z,63.72
2023-01-17T04:56:25.174Z,63.73
2023-01-17T05:01:48.963Z,63.12
2023-01-17T05:07:09.751Z,63.20
2023-01-17T05:12:30.665Z,63.20
2023-01-17T05:17:53.364Z,62.97
2023-01-17T05:23:13.992Z,63.04
2023-01-17T05:28:34.636Z,63.08
2023-01-17T05:33:55.436Z,63.16
2023-01-17T05:39:16.175Z,62.89
2023-01-17T05:44:36.755Z,63.10
2023-01-17T05:49:57.455Z,62.62
2023-01-17T05:55:18.255Z,62.46
2023-01-17T06:00:39.363Z,62.64
2023-01-17T06:05:59.903Z,62.97
2023-01-17T06:11:20.729Z,62.59
2023-01-17T06:16:41.560Z,63.13
2023-01-17T06:22:04.288Z,63.00
2023-01-17T06:27:25.322Z,62.60
2023-01-17T06:32:52.510Z,62.96
2023-01-17T06:38:13.472Z,62.70
2023-01-17T06:43:35.008Z,62.79
2023-01-17T06:48:55.970Z,62.75
2023-01-17T06:54:16.723Z,62.60
2023-01-17T06:59:37.515Z,62.97
2023-01-17T07:04:58.287Z,63.08
2023-01-17T07:10:19.195Z,63.56
2023-01-17T07:15:40.345Z,62.93
2023-01-17T07:21:01.037Z,62.61
2023-01-17T07:26:21.728Z,62.67
2023-01-17T07:31:42.999Z,62.90
2023-01-17T07:37:03.850Z,62.51
2023-01-17T07:42:24.716Z,63.43
2023-01-17T07:47:45.470Z,62.82
2023-01-17T07:53:06.115Z,62.26
2023-01-17T07:58:26.839Z,62.52
2023-01-17T08:03:51.193Z,62.97
2023-01-17T08:09:11.809Z,62.90
2023-01-17T08:14:32.738Z,62.82
2023-01-17T08:19:53.842Z,62.41
2023-01-17T08:25:14.563Z,62.16
2023-01-17T08:30:35.582Z,62.26
2023-01-17T08:35:56.805Z,61.11
2023-01-17T08:41:17.523Z,61.16
2023-01-17T08:46:39.058Z,61.43
2023-01-17T08:52:00.217Z,61.52
2023-01-17T08:57:21.917Z,61.12
2023-01-17T09:02:43.111Z,61.20
2023-01-17T09:08:04.412Z,60.90
2023-01-17T09:13:25.116Z,60.58
2023-01-17T09:18:45.808Z,60.39
2023-01-17T09:24:06.735Z,59.81
2023-01-17T09:29:28.123Z,59.63
2023-01-17T09:34:49.010Z,60.30
2023-01-17T09:40:18.526Z,59.59
2023-01-17T09:45:39.318Z,59.76
2023-01-17T09:51:21.357Z,59.24
2023-01-17T09:56:49.020Z,60.55
2023-01-17T10:02:18.843Z,59.42
2023-01-17T10:08:14.939Z,59.08
2023-01-17T10:13:50.087Z,58.96
2023-01-17T10:19:17.025Z,59.04
2023-01-17T10:24:53.748Z,58.66
2023-01-17T10:30:46.159Z,62.03
2023-01-17T10:36:27.458Z,58.31
2023-01-17T10:41:58.497Z,58.20
2023-01-17T10:47:25.078Z,58.27
2023-01-17T10:53:17.301Z,58.01
2023-01-17T10:58:37.820Z,57.47
2023-01-17T11:03:58.933Z,57.98
2023-01-17T11:09:20.815Z,57.77
2023-01-17T11:15:01.654Z,57.59
2023-01-17T11:20:43.770Z,57.08
2023-01-17T11:26:07.735Z,56.94
2023-01-17T11:31:28.696Z,56.44
2023-01-17T11:36:50.268Z,56.77
2023-01-17T11:42:35.782Z,56.48
2023-01-17T11:48:09.126Z,56.45
2023-01-17T11:53:40.809Z,56.04
2023-01-17T11:59:23.492Z,56.20
2023-01-17T12:05:15.403Z,55.89
2023-01-17T12:10:50.237Z,56.13
2023-01-17T12:16:32.832Z,55.79
2023-01-17T12:22:26.285Z,55.64
2023-01-17T12:27:56.181Z,55.57
2023-01-17T12:33:23.042Z,54.70
2023-01-17T12:38:48.055Z,54.88
2023-01-17T12:44:13.716Z,54.42
2023-01-17T12:49:42.844Z,54.58
2023-01-17T12:55:10.739Z,54.36
2023-01-17T13:00:37.229Z,54.44
2023-01-17T13:05:58.136Z,54.14
2023-01-17T13:11:44.164Z,54.06
2023-01-17T13:17:13.368Z,54.42
2023-01-17T13:22:37.555Z,54.06
2023-01-17T13:28:05.995Z,53.62
2023-01-17T13:33:36.349Z,53.43
2023-01-17T13:39:15.301Z,53.74
2023-01-17T13:44:37.523Z,53.39
2023-01-17T13:49:58.834Z,53.88
2023-01-17T13:55:46.419Z,53.76
2023-01-17T14:01:11.481Z,53.64
2023-01-17T14:06:38.815Z,53.72
2023-01-17T14:12:05.996Z,53.48
2023-01-17T14:17:37.309Z,53.65
2023-01-17T14:23:01.523Z,53.93
2023-01-17T14:28:33.131Z,53.64
2023-01-17T14:33:54.554Z,53.26
2023-01-17T14:39:22.625Z,53.72
2023-01-17T14:45:00.502Z,54.07
2023-01-17T14:50:35.283Z,54.27
2023-01-17T14:56:02.552Z,54.68
2023-01-17T15:01:23.815Z,54.54
2023-01-17T15:06:45.787Z,54.14
2023-01-17T15:12:11.434Z,53.82
2023-01-17T15:17:32.502Z,54.21
2023-01-17T15:22:53.163Z,54.25
2023-01-17T15:28:16.258Z,55.96
2023-01-17T15:33:41.013Z,54.43
2023-01-17T15:39:07.295Z,54.22
2023-01-17T15:44:47.565Z,53.86
2023-01-17T15:50:23.723Z,54.24
2023-01-17T15:55:47.982Z,54.33
2023-01-17T16:01:15.345Z,54.46
2023-01-17T16:06:45.527Z,54.38
2023-01-17T16:12:06.535Z,54.66
2023-01-17T16:17:28.627Z,54.54
2023-01-17T16:22:50.334Z,54.55
2023-01-17T16:28:11.295Z,55.05
2023-01-17T16:33:32.002Z,54.96
2023-01-17T16:38:53.225Z,54.31
2023-01-17T16:44:14.251Z,54.11
2023-01-17T16:49:34.997Z,54.71
2023-01-17T16:54:55.709Z,55.31
2023-01-17T17:00:17.080Z,55.55
2023-01-17T17:05:38.322Z,54.89
2023-01-17T17:11:16.614Z,54.43
2023-01-17T17:16:39.032Z,55.11
2023-01-17T17:22:01.578Z,55.27
2023-01-17T17:27:26.491Z,54.79
2023-01-17T17:32:47.722Z,54.58
2023-01-17T17:38:08.481Z,54.48
2023-01-17T17:43:29.610Z,54.98
2023-01-17T17:48:50.893Z,55.48
2023-01-17T17:54:13.630Z,54.72
2023-01-17T17:59:37.118Z,54.73
2023-01-17T18:04:58.231Z,54.86
2023-01-17T18:10:19.108Z,54.82
2023-01-17T18:15:40.198Z,54.95
2023-01-17T18:21:16.095Z,54.30
2023-01-17T18:26:42.198Z,54.60
2023-01-17T18:32:03.318Z,54.91
2023-01-17T18:37:24.315Z,55.14
2023-01-17T18:42:45.350Z,55.48
2023-01-17T18:48:06.072Z,54.82
2023-01-17T18:53:27.649Z,57.38
2023-01-17T18:58:49.809Z,55.85
2023-01-17T19:04:13.026Z,55.54
2023-01-17T19:09:35.045Z,58.98
2023-01-17T19:14:55.905Z,57.64
2023-01-17T19:20:16.994Z,56.81
2023-01-17T19:25:37.998Z,56.71
2023-01-17T19:31:11.360Z,57.31
2023-01-17T19:36:34.469Z,57.70
2023-01-17T19:41:56.666Z,58.34
2023-01-17T19:47:17.595Z,58.75
2023-01-17T19:52:39.846Z,58.91
2023-01-17T19:58:03.013Z,58.63
2023-01-17T20:03:23.945Z,59.75
2023-01-17T20:08:45.369Z,59.57
2023-01-17T20:14:06.415Z,59.57
2023-01-17T20:19:29.478Z,59.71
2023-01-17T20:24:54.345Z,59.92
2023-01-17T20:30:20.377Z,60.37
2023-01-17T20:35:41.183Z,60.17
2023-01-17T20:41:01.918Z,60.06
2023-01-17T20:46:25.408Z,60.48
2023-01-17T20:51:47.521Z,60.78
2023-01-17T20:57:08.063Z,60.74
2023-01-17T21:02:30.128Z,60.54
2023-01-17T21:07:51.021Z,60.86
2023-01-17T21:13:11.562Z,60.90
2023-01-17T21:18:32.935Z,61.50
2023-01-17T21:23:55.936Z,61.58
2023-01-17T21:29:16.847Z,61.71
2023-01-17T21:34:38.215Z,62.10
2023-01-17T21:40:00.214Z,61.94
2023-01-17T21:45:21.071Z,61.71
2023-01-17T21:50:41.682Z,61.81
2023-01-17T21:56:22.937Z,62.82
2023-01-17T22:01:43.858Z,62.34
2023-01-17T22:07:04.672Z,63.18
2023-01-17T22:12:25.927Z,62.94
2023-01-17T22:17:47.022Z,63.02
2023-01-17T22:23:09.510Z,62.64
2023-01-17T22:28:32.002Z,63.61
2023-01-17T22:34:02.418Z,63.30
2023-01-17T22:39:23.280Z,63.45
2023-01-17T22:44:43.965Z,63.25
2023-01-17T22:50:06.643Z,63.50
2023-01-17T22:55:27.820Z,64.12
2023-01-17T23:00:49.687Z,63.38
2023-01-17T23:06:20.133Z,63.37
2023-01-17T23:11:52.882Z,64.51
2023-01-17T23:17:32.419Z,63.93
2023-01-17T23:22:53.089Z,64.40
2023-01-17T23:28:20.818Z,64.38
2023-01-17T23:33:42.804Z,65.21
2023-01-17T23:39:03.620Z,65.21
2023-01-17T23:44:27.245Z,65.62
2023-01-17T23:49:48.365Z,65.13
2023-01-17T23:55:09.364Z,65.73
